KPNM

Details ICAO KPNM (PNM)
Name PRINCETON MUNI
Region United States
Timezone America/Chicago (UTC-5.0)
Plans Departing 2
Arriving 2
Stats Elevation 979 ft / 298 m (AMSL)
Location 45.559868° -93.608216°
Runways 1
Magnetic Variation 0.399° E
Sunrise 2018-05-26 10:34:23 UTC / 2018-05-26 05:34:23 Local
Sunset 2018-05-27 01:51:30 UTC / 2018-05-26 20:51:30 Local
Advertisement - Login to hide

Runways

ID Width Length Bearing (true) Bearing (mag) Surface Threshold Offset Overrun Length
15 75 ft / 23 m 3,901 ft / 1,189 m 157.94° 157.54° Asphalt 0 ft / 0 m 0 ft / 0 m
33 75 ft / 23 m 3,901 ft / 1,189 m 337.95° 337.55° Asphalt 0 ft / 0 m 0 ft / 0 m

Map

Weather


0- 5 10 15 20 25 30 35+ Temperature / ° C

Clouds and Precipitation
Forecast for 2018-05-26 06:00 UTC. Updated 5 hours ago

Ground ~20,000 ft ~40,000 ft Winds

METAR

KPNM 261035Z AUTO 00000KT 10SM CLR 18/15 A2968 RMK AO2

TAF

Not found

Frequencies

Recorded 119.02 MHz AWOS 3
Unicom 123.00 MHz CTAF/UNICOM
Warning: Do not use this data for real-world aviation or navigation. No guarantee of current accuracy is given.